首页
METAR-TAF:

METAR-TAF

机场 :

東京國際機場

东京国际机场, 日本

纬度: 35-33N, 经度: 139-47E, 海拔: 5米

当前天气观测

该预报发布于22分钟前的10:38 UTC
风速13节,风向南转西南
温度 23°C
湿度 94%
气压 1011 hPa
能見度: 7000
少量云层高于600英尺
多云层高于9000英尺
多云层高于12000英尺

METAR: RJTT 091038Z 20013KT 7000 RA FEW006 BKN090 BKN120 23/22 Q1011 RMK 1ST006 5AC090 7AC120 A2986

时间: 20:00 (11:00 UTC)

预报

该预报发布于5小时和55分钟前的05:05 UTC
预报有效从09日的 06点(UTC)到 10日的 12点(UTC)
风速16节,风向西南
能见度10公里或以上
少量云层高于1500英尺
多云层高于3000英尺
短暂存在
从 09日的 11点(UTC)到 09日的 14点(UTC)
能見度: 4000
少量云层高于500英尺
多云层高于800英尺
小阵雨, 轻雾

TAF: RJTT 090505Z 0906/1012 22016KT 9999 FEW015 BKN030 TEMPO 0911/0914 4000 -SHRA BR FEW005 BKN008

超过4000个机场的气象观测和天气预报(METAR&TAF报告)。

可查询的气象台以黄色和红色小点在地图上表示。

将鼠标移到小点上方,可查看气象台名称。

然后点击查看天气观测和预报。

如需切换地图:点击带黑十字的绿色按钮放大地图;点击带横线的绿色按钮缩小地图;或者点击绿色箭头查看邻近地区的地图。


METAR-TAF: